sensor_id;sensor_type;location;lat;lon;timestamp;P1;durP1;ratioP1;P2;durP2;ratioP2
22812;SDS011;11573;51.334;3.244;2023-09-30T00:01:08;29.55;;;11.20;;
22812;SDS011;11573;51.334;3.244;2023-09-30T00:03:37;30.20;;;11.73;;
22812;SDS011;11573;51.334;3.244;2023-09-30T00:06:04;32.25;;;11.32;;
22812;SDS011;11573;51.334;3.244;2023-09-30T00:08:31;33.55;;;10.73;;
22812;SDS011;11573;51.334;3.244;2023-09-30T00:10:58;32.50;;;11.50;;
22812;SDS011;11573;51.334;3.244;2023-09-30T00:13:26;24.90;;;11.10;;
22812;SDS011;11573;51.334;3.244;2023-09-30T00:15:53;24.65;;;10.77;;
22812;SDS011;11573;51.334;3.244;2023-09-30T00:18:19;29.00;;;11.60;;
22812;SDS011;11573;51.334;3.244;2023-09-30T00:20:47;30.95;;;10.73;;
22812;SDS011;11573;51.334;3.244;2023-09-30T00:23:14;30.67;;;11.98;;
22812;SDS011;11573;51.334;3.244;2023-09-30T00:25:41;31.08;;;11.38;;
22812;SDS011;11573;51.334;3.244;2023-09-30T00:28:08;35.85;;;12.13;;
22812;SDS011;11573;51.334;3.244;2023-09-30T00:30:35;33.63;;;11.30;;
22812;SDS011;11573;51.334;3.244;2023-09-30T00:33:02;28.95;;;10.82;;
22812;SDS011;11573;51.334;3.244;2023-09-30T00:35:31;33.63;;;11.18;;
22812;SDS011;11573;51.334;3.244;2023-09-30T00:38:01;35.05;;;10.80;;
22812;SDS011;11573;51.334;3.244;2023-09-30T00:40:28;28.77;;;10.85;;
22812;SDS011;11573;51.334;3.244;2023-09-30T00:42:57;27.45;;;10.38;;
22812;SDS011;11573;51.334;3.244;2023-09-30T00:45:24;29.83;;;11.63;;
22812;SDS011;11573;51.334;3.244;2023-09-30T00:47:51;25.98;;;11.13;;
22812;SDS011;11573;51.334;3.244;2023-09-30T00:50:21;30.80;;;11.35;;
22812;SDS011;11573;51.334;3.244;2023-09-30T00:52:49;29.58;;;11.55;;
22812;SDS011;11573;51.334;3.244;2023-09-30T00:55:16;29.40;;;11.00;;
22812;SDS011;11573;51.334;3.244;2023-09-30T00:57:46;26.25;;;10.80;;
22812;SDS011;11573;51.334;3.244;2023-09-30T01:00:13;34.35;;;11.82;;
22812;SDS011;11573;51.334;3.244;2023-09-30T01:02:40;38.15;;;12.13;;
22812;SDS011;11573;51.334;3.244;2023-09-30T01:05:08;33.92;;;11.63;;
22812;SDS011;11573;51.334;3.244;2023-09-30T01:07:36;31.13;;;11.93;;
22812;SDS011;11573;51.334;3.244;2023-09-30T01:10:03;37.65;;;12.70;;
22812;SDS011;11573;51.334;3.244;2023-09-30T01:12:31;33.20;;;12.25;;
22812;SDS011;11573;51.334;3.244;2023-09-30T01:14:58;34.53;;;11.02;;
22812;SDS011;11573;51.334;3.244;2023-09-30T01:17:33;34.03;;;11.27;;
22812;SDS011;11573;51.334;3.244;2023-09-30T01:20:01;33.33;;;11.73;;
22812;SDS011;11573;51.334;3.244;2023-09-30T01:22:32;37.15;;;11.63;;
22812;SDS011;11573;51.334;3.244;2023-09-30T01:24:59;27.10;;;11.77;;
22812;SDS011;11573;51.334;3.244;2023-09-30T01:27:26;28.52;;;11.43;;
22812;SDS011;11573;51.334;3.244;2023-09-30T01:29:53;29.80;;;11.25;;
22812;SDS011;11573;51.334;3.244;2023-09-30T01:32:20;25.13;;;10.77;;
22812;SDS011;11573;51.334;3.244;2023-09-30T01:34:47;45.03;;;12.43;;
22812;SDS011;11573;51.334;3.244;2023-09-30T01:37:14;37.88;;;12.50;;
22812;SDS011;11573;51.334;3.244;2023-09-30T01:39:41;46.75;;;12.50;;
22812;SDS011;11573;51.334;3.244;2023-09-30T01:42:10;34.42;;;11.82;;
22812;SDS011;11573;51.334;3.244;2023-09-30T01:44:37;33.30;;;13.02;;
22812;SDS011;11573;51.334;3.244;2023-09-30T01:47:04;30.05;;;11.35;;
22812;SDS011;11573;51.334;3.244;2023-09-30T01:49:31;34.40;;;12.38;;
22812;SDS011;11573;51.334;3.244;2023-09-30T01:51:58;39.38;;;13.02;;
22812;SDS011;11573;51.334;3.244;2023-09-30T01:54:25;37.63;;;12.45;;
22812;SDS011;11573;51.334;3.244;2023-09-30T01:56:52;35.35;;;11.77;;
22812;SDS011;11573;51.334;3.244;2023-09-30T01:59:19;35.15;;;13.35;;
22812;SDS011;11573;51.334;3.244;2023-09-30T02:01:46;40.35;;;12.35;;
22812;SDS011;11573;51.334;3.244;2023-09-30T02:04:15;25.10;;;11.27;;
22812;SDS011;11573;51.334;3.244;2023-09-30T02:06:43;33.33;;;12.27;;
22812;SDS011;11573;51.334;3.244;2023-09-30T02:09:10;29.13;;;12.18;;
22812;SDS011;11573;51.334;3.244;2023-09-30T02:11:39;35.17;;;11.40;;
22812;SDS011;11573;51.334;3.244;2023-09-30T02:14:07;28.48;;;12.32;;
22812;SDS011;11573;51.334;3.244;2023-09-30T02:16:39;36.90;;;12.55;;
22812;SDS011;11573;51.334;3.244;2023-09-30T02:19:06;39.67;;;12.05;;
22812;SDS011;11573;51.334;3.244;2023-09-30T02:21:33;41.47;;;12.18;;
22812;SDS011;11573;51.334;3.244;2023-09-30T02:24:01;30.80;;;12.18;;
22812;SDS011;11573;51.334;3.244;2023-09-30T02:26:29;35.25;;;11.15;;
22812;SDS011;11573;51.334;3.244;2023-09-30T02:28:55;31.90;;;11.85;;
22812;SDS011;11573;51.334;3.244;2023-09-30T02:31:23;29.58;;;11.20;;
22812;SDS011;11573;51.334;3.244;2023-09-30T02:33:50;42.75;;;12.25;;
22812;SDS011;11573;51.334;3.244;2023-09-30T02:36:17;37.90;;;12.18;;
22812;SDS011;11573;51.334;3.244;2023-09-30T02:38:44;37.75;;;12.60;;
22812;SDS011;11573;51.334;3.244;2023-09-30T02:41:12;35.67;;;12.50;;
22812;SDS011;11573;51.334;3.244;2023-09-30T02:43:41;33.33;;;12.35;;
22812;SDS011;11573;51.334;3.244;2023-09-30T02:46:08;34.83;;;11.60;;
22812;SDS011;11573;51.334;3.244;2023-09-30T02:48:36;21.20;;;10.00;;
22812;SDS011;11573;51.334;3.244;2023-09-30T02:51:03;31.80;;;10.45;;
22812;SDS011;11573;51.334;3.244;2023-09-30T02:53:30;36.55;;;12.02;;
22812;SDS011;11573;51.334;3.244;2023-09-30T02:55:57;28.80;;;10.75;;
22812;SDS011;11573;51.334;3.244;2023-09-30T02:58:26;40.70;;;12.18;;
22812;SDS011;11573;51.334;3.244;2023-09-30T03:00:53;25.20;;;10.20;;
22812;SDS011;11573;51.334;3.244;2023-09-30T03:03:21;26.00;;;10.07;;
22812;SDS011;11573;51.334;3.244;2023-09-30T03:05:48;28.88;;;10.55;;
22812;SDS011;11573;51.334;3.244;2023-09-30T03:08:16;34.25;;;12.35;;
22812;SDS011;11573;51.334;3.244;2023-09-30T03:10:43;33.63;;;10.90;;
22812;SDS011;11573;51.334;3.244;2023-09-30T03:13:10;33.72;;;11.40;;
22812;SDS011;11573;51.334;3.244;2023-09-30T03:15:37;32.67;;;11.77;;
22812;SDS011;11573;51.334;3.244;2023-09-30T03:18:05;32.15;;;10.60;;
22812;SDS011;11573;51.334;3.244;2023-09-30T03:20:32;26.55;;;10.43;;
22812;SDS011;11573;51.334;3.244;2023-09-30T03:22:59;29.15;;;10.98;;
22812;SDS011;11573;51.334;3.244;2023-09-30T03:25:26;26.23;;;11.23;;
22812;SDS011;11573;51.334;3.244;2023-09-30T03:27:53;29.05;;;10.23;;
22812;SDS011;11573;51.334;3.244;2023-09-30T03:30:20;28.63;;;11.32;;
22812;SDS011;11573;51.334;3.244;2023-09-30T03:32:47;24.20;;;9.75;;
22812;SDS011;11573;51.334;3.244;2023-09-30T03:35:15;27.40;;;9.73;;
22812;SDS011;11573;51.334;3.244;2023-09-30T03:37:45;22.08;;;9.88;;
22812;SDS011;11573;51.334;3.244;2023-09-30T03:40:14;20.50;;;9.40;;
22812;SDS011;11573;51.334;3.244;2023-09-30T03:42:46;25.10;;;10.70;;
22812;SDS011;11573;51.334;3.244;2023-09-30T03:45:16;25.38;;;9.70;;
22812;SDS011;11573;51.334;3.244;2023-09-30T03:47:45;19.83;;;9.65;;
22812;SDS011;11573;51.334;3.244;2023-09-30T03:50:14;22.58;;;8.85;;
22812;SDS011;11573;51.334;3.244;2023-09-30T03:52:42;20.00;;;9.32;;
22812;SDS011;11573;51.334;3.244;2023-09-30T03:55:15;23.42;;;8.82;;
22812;SDS011;11573;51.334;3.244;2023-09-30T03:57:47;20.52;;;9.77;;
22812;SDS011;11573;51.334;3.244;2023-09-30T04:00:15;22.55;;;9.52;;
22812;SDS011;11573;51.334;3.244;2023-09-30T04:02:46;18.73;;;8.82;;
22812;SDS011;11573;51.334;3.244;2023-09-30T04:05:19;18.10;;;8.55;;
22812;SDS011;11573;51.334;3.244;2023-09-30T04:07:50;18.83;;;8.73;;
22812;SDS011;11573;51.334;3.244;2023-09-30T04:10:17;18.30;;;9.10;;
22812;SDS011;11573;51.334;3.244;2023-09-30T04:12:47;20.90;;;8.32;;
22812;SDS011;11573;51.334;3.244;2023-09-30T04:15:14;19.55;;;8.70;;
22812;SDS011;11573;51.334;3.244;2023-09-30T04:17:42;17.48;;;8.38;;
22812;SDS011;11573;51.334;3.244;2023-09-30T04:20:09;16.77;;;8.32;;
22812;SDS011;11573;51.334;3.244;2023-09-30T04:22:38;17.77;;;7.43;;
22812;SDS011;11573;51.334;3.244;2023-09-30T04:25:05;16.30;;;8.32;;
22812;SDS011;11573;51.334;3.244;2023-09-30T04:27:35;16.98;;;9.15;;
22812;SDS011;11573;51.334;3.244;2023-09-30T04:30:03;16.33;;;7.93;;
22812;SDS011;11573;51.334;3.244;2023-09-30T04:32:35;21.30;;;8.77;;
22812;SDS011;11573;51.334;3.244;2023-09-30T04:35:03;15.73;;;8.13;;
22812;SDS011;11573;51.334;3.244;2023-09-30T04:37:31;16.90;;;8.65;;
22812;SDS011;11573;51.334;3.244;2023-09-30T04:39:58;18.55;;;8.07;;
22812;SDS011;11573;51.334;3.244;2023-09-30T04:42:25;14.40;;;7.63;;
22812;SDS011;11573;51.334;3.244;2023-09-30T04:44:52;12.32;;;8.18;;
22812;SDS011;11573;51.334;3.244;2023-09-30T04:47:21;19.75;;;9.20;;
22812;SDS011;11573;51.334;3.244;2023-09-30T04:49:50;15.88;;;9.15;;
22812;SDS011;11573;51.334;3.244;2023-09-30T04:52:17;18.67;;;10.68;;
22812;SDS011;11573;51.334;3.244;2023-09-30T04:54:44;22.05;;;14.82;;
22812;SDS011;11573;51.334;3.244;2023-09-30T04:57:12;22.80;;;15.25;;
22812;SDS011;11573;51.334;3.244;2023-09-30T04:59:39;26.65;;;14.93;;
22812;SDS011;11573;51.334;3.244;2023-09-30T05:02:06;19.48;;;12.50;;
22812;SDS011;11573;51.334;3.244;2023-09-30T05:04:33;16.05;;;10.07;;
22812;SDS011;11573;51.334;3.244;2023-09-30T05:07:00;26.05;;;10.60;;
22812;SDS011;11573;51.334;3.244;2023-09-30T05:09:27;16.92;;;10.55;;
22812;SDS011;11573;51.334;3.244;2023-09-30T05:11:54;20.45;;;9.40;;
22812;SDS011;11573;51.334;3.244;2023-09-30T05:14:21;16.05;;;8.70;;
22812;SDS011;11573;51.334;3.244;2023-09-30T05:16:48;13.48;;;7.90;;
22812;SDS011;11573;51.334;3.244;2023-09-30T05:19:16;15.60;;;9.38;;
22812;SDS011;11573;51.334;3.244;2023-09-30T05:21:42;18.67;;;8.70;;
22812;SDS011;11573;51.334;3.244;2023-09-30T05:24:10;16.63;;;9.50;;
22812;SDS011;11573;51.334;3.244;2023-09-30T05:26:37;14.95;;;10.48;;
22812;SDS011;11573;51.334;3.244;2023-09-30T05:29:04;15.88;;;8.43;;
22812;SDS011;11573;51.334;3.244;2023-09-30T05:31:32;14.00;;;7.25;;
22812;SDS011;11573;51.334;3.244;2023-09-30T05:33:59;17.50;;;7.93;;
22812;SDS011;11573;51.334;3.244;2023-09-30T05:36:27;12.13;;;7.38;;
22812;SDS011;11573;51.334;3.244;2023-09-30T05:38:54;13.85;;;7.85;;
22812;SDS011;11573;51.334;3.244;2023-09-30T05:41:22;11.77;;;6.65;;
22812;SDS011;11573;51.334;3.244;2023-09-30T05:43:48;12.80;;;7.28;;
22812;SDS011;11573;51.334;3.244;2023-09-30T05:46:15;11.02;;;7.22;;
22812;SDS011;11573;51.334;3.244;2023-09-30T05:48:42;14.05;;;7.50;;
22812;SDS011;11573;51.334;3.244;2023-09-30T05:51:09;14.23;;;7.13;;
22812;SDS011;11573;51.334;3.244;2023-09-30T05:53:41;18.33;;;6.85;;
22812;SDS011;11573;51.334;3.244;2023-09-30T05:56:08;12.45;;;7.13;;
22812;SDS011;11573;51.334;3.244;2023-09-30T05:58:37;16.10;;;7.47;;
22812;SDS011;11573;51.334;3.244;2023-09-30T06:01:08;16.58;;;8.30;;
22812;SDS011;11573;51.334;3.244;2023-09-30T06:03:39;14.25;;;7.22;;
22812;SDS011;11573;51.334;3.244;2023-09-30T06:06:13;15.38;;;7.88;;
22812;SDS011;11573;51.334;3.244;2023-09-30T06:08:42;26.13;;;8.70;;
22812;SDS011;11573;51.334;3.244;2023-09-30T06:11:18;14.13;;;7.95;;
22812;SDS011;11573;51.334;3.244;2023-09-30T06:16:15;14.45;;;7.88;;
22812;SDS011;11573;51.334;3.244;2023-09-30T06:18:42;16.20;;;7.85;;
22812;SDS011;11573;51.334;3.244;2023-09-30T06:21:12;10.52;;;6.82;;
22812;SDS011;11573;51.334;3.244;2023-09-30T06:23:41;13.88;;;7.05;;
22812;SDS011;11573;51.334;3.244;2023-09-30T06:26:09;13.32;;;7.35;;
22812;SDS011;11573;51.334;3.244;2023-09-30T06:28:36;11.85;;;6.75;;
22812;SDS011;11573;51.334;3.244;2023-09-30T06:31:07;15.15;;;7.47;;
22812;SDS011;11573;51.334;3.244;2023-09-30T06:33:35;15.88;;;8.82;;
22812;SDS011;11573;51.334;3.244;2023-09-30T06:36:08;32.33;;;17.25;;
22812;SDS011;11573;51.334;3.244;2023-09-30T06:38:37;84.03;;;39.38;;
22812;SDS011;11573;51.334;3.244;2023-09-30T06:41:08;64.20;;;35.10;;
22812;SDS011;11573;51.334;3.244;2023-09-30T06:43:35;49.65;;;26.52;;
22812;SDS011;11573;51.334;3.244;2023-09-30T06:46:06;44.00;;;23.45;;
22812;SDS011;11573;51.334;3.244;2023-09-30T06:48:37;38.97;;;18.20;;
22812;SDS011;11573;51.334;3.244;2023-09-30T06:51:04;25.67;;;14.73;;
22812;SDS011;11573;51.334;3.244;2023-09-30T06:53:31;26.35;;;11.60;;
22812;SDS011;11573;51.334;3.244;2023-09-30T06:55:59;22.55;;;11.90;;
22812;SDS011;11573;51.334;3.244;2023-09-30T06:58:26;15.00;;;10.98;;
22812;SDS011;11573;51.334;3.244;2023-09-30T07:00:53;20.00;;;10.93;;
22812;SDS011;11573;51.334;3.244;2023-09-30T07:03:20;24.92;;;11.95;;
22812;SDS011;11573;51.334;3.244;2023-09-30T07:05:51;23.83;;;12.48;;
22812;SDS011;11573;51.334;3.244;2023-09-30T07:08:20;24.52;;;11.90;;
22812;SDS011;11573;51.334;3.244;2023-09-30T07:10:48;22.63;;;11.65;;
22812;SDS011;11573;51.334;3.244;2023-09-30T07:13:19;26.88;;;12.23;;
22812;SDS011;11573;51.334;3.244;2023-09-30T07:15:47;16.92;;;10.18;;
22812;SDS011;11573;51.334;3.244;2023-09-30T07:18:14;30.20;;;13.15;;
22812;SDS011;11573;51.334;3.244;2023-09-30T07:20:41;22.27;;;11.80;;
22812;SDS011;11573;51.334;3.244;2023-09-30T07:23:08;29.60;;;11.82;;
22812;SDS011;11573;51.334;3.244;2023-09-30T07:25:46;30.73;;;12.65;;
22812;SDS011;11573;51.334;3.244;2023-09-30T07:28:13;28.05;;;12.40;;
22812;SDS011;11573;51.334;3.244;2023-09-30T07:30:40;28.75;;;12.18;;
22812;SDS011;11573;51.334;3.244;2023-09-30T07:33:08;26.70;;;11.93;;
22812;SDS011;11573;51.334;3.244;2023-09-30T07:35:37;28.42;;;12.52;;
22812;SDS011;11573;51.334;3.244;2023-09-30T07:38:05;25.50;;;12.90;;
22812;SDS011;11573;51.334;3.244;2023-09-30T07:40:32;32.97;;;14.02;;
22812;SDS011;11573;51.334;3.244;2023-09-30T07:42:59;29.20;;;13.45;;
22812;SDS011;11573;51.334;3.244;2023-09-30T07:45:26;31.27;;;12.93;;
22812;SDS011;11573;51.334;3.244;2023-09-30T07:47:54;30.25;;;13.90;;
22812;SDS011;11573;51.334;3.244;2023-09-30T07:50:21;32.90;;;13.07;;
22812;SDS011;11573;51.334;3.244;2023-09-30T07:52:48;36.40;;;13.48;;
22812;SDS011;11573;51.334;3.244;2023-09-30T07:55:15;30.23;;;13.00;;
22812;SDS011;11573;51.334;3.244;2023-09-30T07:57:43;28.85;;;13.52;;
22812;SDS011;11573;51.334;3.244;2023-09-30T08:00:10;24.15;;;12.73;;
22812;SDS011;11573;51.334;3.244;2023-09-30T08:02:42;30.02;;;13.57;;
22812;SDS011;11573;51.334;3.244;2023-09-30T08:05:10;25.55;;;13.15;;
22812;SDS011;11573;51.334;3.244;2023-09-30T08:07:38;29.02;;;13.80;;
22812;SDS011;11573;51.334;3.244;2023-09-30T08:10:05;29.30;;;13.27;;
22812;SDS011;11573;51.334;3.244;2023-09-30T08:12:39;35.03;;;14.15;;
22812;SDS011;11573;51.334;3.244;2023-09-30T08:15:06;28.52;;;13.05;;
22812;SDS011;11573;51.334;3.244;2023-09-30T08:17:35;26.33;;;12.68;;
22812;SDS011;11573;51.334;3.244;2023-09-30T08:20:02;29.67;;;12.73;;
22812;SDS011;11573;51.334;3.244;2023-09-30T08:22:30;26.85;;;12.43;;
22812;SDS011;11573;51.334;3.244;2023-09-30T08:24:57;30.75;;;12.20;;
22812;SDS011;11573;51.334;3.244;2023-09-30T08:27:25;28.25;;;12.85;;
22812;SDS011;11573;51.334;3.244;2023-09-30T08:29:52;24.85;;;12.00;;
22812;SDS011;11573;51.334;3.244;2023-09-30T08:32:19;25.48;;;11.25;;
22812;SDS011;11573;51.334;3.244;2023-09-30T08:34:47;23.70;;;11.18;;
22812;SDS011;11573;51.334;3.244;2023-09-30T08:37:14;26.85;;;11.85;;
22812;SDS011;11573;51.334;3.244;2023-09-30T08:39:41;27.38;;;12.18;;
22812;SDS011;11573;51.334;3.244;2023-09-30T08:42:10;25.58;;;11.75;;
22812;SDS011;11573;51.334;3.244;2023-09-30T08:44:40;22.20;;;10.50;;
22812;SDS011;11573;51.334;3.244;2023-09-30T08:47:08;27.10;;;11.25;;
22812;SDS011;11573;51.334;3.244;2023-09-30T08:49:37;28.98;;;11.50;;
22812;SDS011;11573;51.334;3.244;2023-09-30T08:52:09;25.63;;;10.95;;
22812;SDS011;11573;51.334;3.244;2023-09-30T08:54:39;23.13;;;11.15;;
22812;SDS011;11573;51.334;3.244;2023-09-30T08:57:07;24.30;;;9.57;;
22812;SDS011;11573;51.334;3.244;2023-09-30T08:59:36;21.23;;;9.75;;
22812;SDS011;11573;51.334;3.244;2023-09-30T09:02:07;23.70;;;9.45;;
22812;SDS011;11573;51.334;3.244;2023-09-30T09:04:39;23.27;;;9.70;;
22812;SDS011;11573;51.334;3.244;2023-09-30T09:07:06;18.92;;;8.45;;
22812;SDS011;11573;51.334;3.244;2023-09-30T09:09:33;27.92;;;9.38;;
22812;SDS011;11573;51.334;3.244;2023-09-30T09:12:00;22.27;;;9.65;;
22812;SDS011;11573;51.334;3.244;2023-09-30T09:14:38;26.33;;;9.90;;
22812;SDS011;11573;51.334;3.244;2023-09-30T09:17:07;24.10;;;8.40;;
22812;SDS011;11573;51.334;3.244;2023-09-30T09:19:35;18.88;;;7.95;;
22812;SDS011;11573;51.334;3.244;2023-09-30T09:22:02;23.30;;;9.25;;
22812;SDS011;11573;51.334;3.244;2023-09-30T09:24:34;25.05;;;8.15;;
22812;SDS011;11573;51.334;3.244;2023-09-30T09:27:06;18.05;;;8.63;;
22812;SDS011;11573;51.334;3.244;2023-09-30T09:29:38;27.42;;;8.25;;
22812;SDS011;11573;51.334;3.244;2023-09-30T09:32:09;27.27;;;9.30;;
22812;SDS011;11573;51.334;3.244;2023-09-30T09:34:37;23.33;;;8.50;;
22812;SDS011;11573;51.334;3.244;2023-09-30T09:37:17;21.55;;;7.82;;
22812;SDS011;11573;51.334;3.244;2023-09-30T09:39:54;23.45;;;8.60;;
22812;SDS011;11573;51.334;3.244;2023-09-30T09:42:27;19.80;;;8.65;;
22812;SDS011;11573;51.334;3.244;2023-09-30T09:45:03;29.35;;;9.50;;
22812;SDS011;11573;51.334;3.244;2023-09-30T09:47:32;22.05;;;8.55;;
22812;SDS011;11573;51.334;3.244;2023-09-30T09:50:02;23.27;;;8.52;;
22812;SDS011;11573;51.334;3.244;2023-09-30T09:52:31;19.38;;;7.63;;
22812;SDS011;11573;51.334;3.244;2023-09-30T09:55:01;24.58;;;7.60;;
22812;SDS011;11573;51.334;3.244;2023-09-30T09:57:30;22.85;;;7.72;;
22812;SDS011;11573;51.334;3.244;2023-09-30T09:59:58;26.10;;;7.10;;
22812;SDS011;11573;51.334;3.244;2023-09-30T10:02:26;22.55;;;6.35;;
22812;SDS011;11573;51.334;3.244;2023-09-30T10:04:55;19.23;;;6.45;;
22812;SDS011;11573;51.334;3.244;2023-09-30T10:07:30;16.08;;;6.55;;
22812;SDS011;11573;51.334;3.244;2023-09-30T10:10:02;20.73;;;6.55;;
22812;SDS011;11573;51.334;3.244;2023-09-30T10:12:37;16.63;;;5.72;;
22812;SDS011;11573;51.334;3.244;2023-09-30T10:15:33;20.75;;;5.63;;
22812;SDS011;11573;51.334;3.244;2023-09-30T10:18:06;17.10;;;5.53;;
22812;SDS011;11573;51.334;3.244;2023-09-30T10:20:42;19.40;;;6.13;;
22812;SDS011;11573;51.334;3.244;2023-09-30T10:28:47;16.45;;;5.03;;
22812;SDS011;11573;51.334;3.244;2023-09-30T10:36:38;12.82;;;3.83;;
22812;SDS011;11573;51.334;3.244;2023-09-30T10:39:19;20.77;;;5.78;;
22812;SDS011;11573;51.334;3.244;2023-09-30T10:42:20;16.45;;;4.47;;
22812;SDS011;11573;51.334;3.244;2023-09-30T10:53:22;13.65;;;3.45;;
22812;SDS011;11573;51.334;3.244;2023-09-30T10:55:56;16.55;;;3.83;;
22812;SDS011;11573;51.334;3.244;2023-09-30T11:01:12;12.20;;;3.28;;
22812;SDS011;11573;51.334;3.244;2023-09-30T11:03:43;9.40;;;3.30;;
22812;SDS011;11573;51.334;3.244;2023-09-30T11:06:13;15.95;;;4.07;;
22812;SDS011;11573;51.334;3.244;2023-09-30T11:08:45;20.45;;;3.70;;
22812;SDS011;11573;51.334;3.244;2023-09-30T11:11:18;10.00;;;3.30;;
22812;SDS011;11573;51.334;3.244;2023-09-30T11:13:45;9.15;;;3.75;;
22812;SDS011;11573;51.334;3.244;2023-09-30T11:16:12;12.40;;;3.80;;
22812;SDS011;11573;51.334;3.244;2023-09-30T11:18:40;9.32;;;2.92;;
22812;SDS011;11573;51.334;3.244;2023-09-30T11:21:08;12.85;;;3.35;;
22812;SDS011;11573;51.334;3.244;2023-09-30T11:23:40;13.55;;;3.45;;
22812;SDS011;11573;51.334;3.244;2023-09-30T11:26:08;9.55;;;3.25;;
22812;SDS011;11573;51.334;3.244;2023-09-30T11:28:36;10.45;;;3.00;;
22812;SDS011;11573;51.334;3.244;2023-09-30T11:31:09;13.25;;;3.42;;
22812;SDS011;11573;51.334;3.244;2023-09-30T11:33:48;11.02;;;3.50;;
22812;SDS011;11573;51.334;3.244;2023-09-30T11:36:20;13.45;;;3.60;;
22812;SDS011;11573;51.334;3.244;2023-09-30T11:38:51;13.82;;;3.42;;
22812;SDS011;11573;51.334;3.244;2023-09-30T11:41:21;11.63;;;2.78;;
22812;SDS011;11573;51.334;3.244;2023-09-30T11:43:59;11.80;;;2.78;;
22812;SDS011;11573;51.334;3.244;2023-09-30T11:46:31;8.15;;;2.70;;
22812;SDS011;11573;51.334;3.244;2023-09-30T11:49:01;11.57;;;2.95;;
22812;SDS011;11573;51.334;3.244;2023-09-30T11:51:41;14.45;;;3.30;;
22812;SDS011;11573;51.334;3.244;2023-09-30T11:54:13;12.48;;;3.30;;
22812;SDS011;11573;51.334;3.244;2023-09-30T11:56:40;10.15;;;2.88;;
22812;SDS011;11573;51.334;3.244;2023-09-30T11:59:08;12.63;;;2.75;;
22812;SDS011;11573;51.334;3.244;2023-09-30T12:01:37;8.07;;;2.85;;
22812;SDS011;11573;51.334;3.244;2023-09-30T12:04:04;11.02;;;3.45;;
22812;SDS011;11573;51.334;3.244;2023-09-30T12:06:32;11.45;;;3.10;;
22812;SDS011;11573;51.334;3.244;2023-09-30T12:09:00;12.65;;;3.10;;
22812;SDS011;11573;51.334;3.244;2023-09-30T12:11:29;12.65;;;3.83;;
22812;SDS011;11573;51.334;3.244;2023-09-30T12:13:56;9.27;;;3.08;;
22812;SDS011;11573;51.334;3.244;2023-09-30T12:16:23;12.93;;;3.10;;
22812;SDS011;11573;51.334;3.244;2023-09-30T12:18:50;13.68;;;3.72;;
22812;SDS011;11573;51.334;3.244;2023-09-30T12:21:17;12.52;;;3.00;;
22812;SDS011;11573;51.334;3.244;2023-09-30T12:23:46;12.45;;;3.63;;
22812;SDS011;11573;51.334;3.244;2023-09-30T12:26:15;12.60;;;3.22;;
22812;SDS011;11573;51.334;3.244;2023-09-30T12:28:44;11.98;;;3.03;;
22812;SDS011;11573;51.334;3.244;2023-09-30T12:31:11;11.60;;;3.05;;
22812;SDS011;11573;51.334;3.244;2023-09-30T12:33:40;15.68;;;2.83;;
22812;SDS011;11573;51.334;3.244;2023-09-30T12:36:07;9.10;;;2.92;;
22812;SDS011;11573;51.334;3.244;2023-09-30T12:38:34;8.90;;;2.65;;
22812;SDS011;11573;51.334;3.244;2023-09-30T12:41:01;13.95;;;3.38;;
22812;SDS011;11573;51.334;3.244;2023-09-30T12:43:30;10.35;;;3.50;;
22812;SDS011;11573;51.334;3.244;2023-09-30T12:45:57;13.15;;;3.13;;
22812;SDS011;11573;51.334;3.244;2023-09-30T12:48:24;11.73;;;3.05;;
22812;SDS011;11573;51.334;3.244;2023-09-30T12:50:51;12.98;;;2.97;;
22812;SDS011;11573;51.334;3.244;2023-09-30T12:53:18;15.48;;;4.32;;
22812;SDS011;11573;51.334;3.244;2023-09-30T12:55:45;12.32;;;3.38;;
22812;SDS011;11573;51.334;3.244;2023-09-30T12:58:12;10.18;;;3.10;;
22812;SDS011;11573;51.334;3.244;2023-09-30T13:00:39;12.05;;;2.80;;
22812;SDS011;11573;51.334;3.244;2023-09-30T13:03:06;58.05;;;13.15;;
22812;SDS011;11573;51.334;3.244;2023-09-30T13:05:34;9.55;;;3.42;;
22812;SDS011;11573;51.334;3.244;2023-09-30T13:08:01;9.30;;;3.47;;
22812;SDS011;11573;51.334;3.244;2023-09-30T13:10:28;11.30;;;3.17;;
22812;SDS011;11573;51.334;3.244;2023-09-30T13:12:56;11.55;;;3.38;;
22812;SDS011;11573;51.334;3.244;2023-09-30T13:15:24;9.50;;;2.92;;
22812;SDS011;11573;51.334;3.244;2023-09-30T13:17:52;9.85;;;3.03;;
22812;SDS011;11573;51.334;3.244;2023-09-30T13:20:20;12.70;;;2.92;;
22812;SDS011;11573;51.334;3.244;2023-09-30T13:22:47;10.27;;;2.75;;
22812;SDS011;11573;51.334;3.244;2023-09-30T13:25:15;11.45;;;3.10;;
22812;SDS011;11573;51.334;3.244;2023-09-30T13:27:42;13.73;;;3.22;;
22812;SDS011;11573;51.334;3.244;2023-09-30T13:30:09;11.30;;;2.97;;
22812;SDS011;11573;51.334;3.244;2023-09-30T13:32:37;11.02;;;2.70;;
22812;SDS011;11573;51.334;3.244;2023-09-30T13:35:04;13.45;;;2.97;;
22812;SDS011;11573;51.334;3.244;2023-09-30T13:37:32;10.95;;;3.20;;
22812;SDS011;11573;51.334;3.244;2023-09-30T13:40:00;10.60;;;3.03;;
22812;SDS011;11573;51.334;3.244;2023-09-30T13:42:28;7.80;;;2.72;;
22812;SDS011;11573;51.334;3.244;2023-09-30T13:44:55;14.55;;;3.47;;
22812;SDS011;11573;51.334;3.244;2023-09-30T13:47:25;11.07;;;2.92;;
22812;SDS011;11573;51.334;3.244;2023-09-30T13:49:53;12.32;;;2.45;;
22812;SDS011;11573;51.334;3.244;2023-09-30T13:52:19;11.50;;;3.40;;
22812;SDS011;11573;51.334;3.244;2023-09-30T13:54:47;12.38;;;3.20;;
22812;SDS011;11573;51.334;3.244;2023-09-30T13:57:14;13.13;;;3.20;;
22812;SDS011;11573;51.334;3.244;2023-09-30T13:59:41;11.55;;;2.97;;
22812;SDS011;11573;51.334;3.244;2023-09-30T14:02:10;11.45;;;3.28;;
22812;SDS011;11573;51.334;3.244;2023-09-30T14:04:38;15.82;;;3.67;;
22812;SDS011;11573;51.334;3.244;2023-09-30T14:07:05;10.93;;;3.00;;
22812;SDS011;11573;51.334;3.244;2023-09-30T14:09:34;11.73;;;3.30;;
22812;SDS011;11573;51.334;3.244;2023-09-30T14:12:02;10.45;;;2.97;;
22812;SDS011;11573;51.334;3.244;2023-09-30T14:14:33;12.52;;;2.70;;
22812;SDS011;11573;51.334;3.244;2023-09-30T14:17:01;10.65;;;2.53;;
22812;SDS011;11573;51.334;3.244;2023-09-30T14:19:34;10.70;;;2.95;;
22812;SDS011;11573;51.334;3.244;2023-09-30T14:22:01;14.45;;;2.97;;
22812;SDS011;11573;51.334;3.244;2023-09-30T14:24:31;15.20;;;4.68;;
22812;SDS011;11573;51.334;3.244;2023-09-30T14:27:03;14.77;;;4.30;;
22812;SDS011;11573;51.334;3.244;2023-09-30T14:29:30;7.95;;;2.50;;
22812;SDS011;11573;51.334;3.244;2023-09-30T14:31:58;11.60;;;2.78;;
22812;SDS011;11573;51.334;3.244;2023-09-30T14:34:26;10.77;;;3.10;;
22812;SDS011;11573;51.334;3.244;2023-09-30T14:36:53;12.18;;;2.90;;
22812;SDS011;11573;51.334;3.244;2023-09-30T14:39:21;11.05;;;2.78;;
22812;SDS011;11573;51.334;3.244;2023-09-30T14:41:49;15.13;;;2.88;;
22812;SDS011;11573;51.334;3.244;2023-09-30T14:44:17;10.90;;;2.75;;
22812;SDS011;11573;51.334;3.244;2023-09-30T14:46:44;11.02;;;2.88;;
22812;SDS011;11573;51.334;3.244;2023-09-30T14:49:11;8.75;;;2.53;;
22812;SDS011;11573;51.334;3.244;2023-09-30T14:51:39;10.88;;;3.03;;
22812;SDS011;11573;51.334;3.244;2023-09-30T14:54:06;12.43;;;3.10;;
22812;SDS011;11573;51.334;3.244;2023-09-30T14:56:34;14.23;;;2.95;;
22812;SDS011;11573;51.334;3.244;2023-09-30T14:59:01;7.10;;;2.78;;
22812;SDS011;11573;51.334;3.244;2023-09-30T15:01:33;10.50;;;2.45;;